Overview Statistics Trail Chart Weather Telemetry Raw packets
 

This is the latest recevied weather packets stored in our database for station/object IW8ELN-10. If no packets are shown the sender has not sent any weather packets the latest 10 day(s).

<< 1 2 3 4 5 6 >>
Time Temp. Humidity Pressure Rain* Wind** Luminosity Snow
1788299578 24.44° C 65% 992.1 hPa - - - -
1788295978 24.44° C 65% 991.9 hPa - - - -
1788292377 25° C 64% 991.8 hPa - - - -
1788288778 25.56° C 63% 991.3 hPa - - - -
1788285177 25.56° C 61% 990.6 hPa - - - -
1788281584 26.11° C 57% 990.2 hPa - - - -
1788277984 26.67° C 59% 990 hPa - - - -
1788274377 26.67° C 58% 989.7 hPa - - - -
1788259976 25.56° C 61% 990.7 hPa - - - -
1788256376 25° C 64% 991.2 hPa - - - -
1788249176 24.44° C 69% 991.2 hPa - - - -
1788245583 23.33° C 69% 991.3 hPa - - - -
1788234783 23.33° C 68% 990.9 hPa - - - -
1788231176 23.33° C 69% 991 hPa - - - -
1788227575 23.89° C 69% 990.8 hPa - - - -
1788223982 23.89° C 70% 990.8 hPa - - - -
1788220375 23.89° C 71% 990.7 hPa - - - -
1788216775 24.44° C 71% 990.3 hPa - - - -
1788213175 24.44° C 71% 990.4 hPa - - - -
1788209582 25° C 70% 990.1 hPa - - - -
1788205975 25° C 71% 989.6 hPa - - - -
1788202375 25.56° C 69% 989.1 hPa - - - -
1788198774 26.11° C 67% 988.8 hPa - - - -
1788195174 26.67° C 64% 988.5 hPa - - - -
1788191574 27.22° C 61% 988 hPa - - - -

* Rain since midnight (hover to see other rain measurements)
** Current wind speed in m/s (hover to see current wind gust speed)